createdAt,value
2018-01-30T00:02:27.748Z,83.82
2018-01-30T00:04:56.050Z,84.83
2018-01-30T00:07:24.319Z,85.41
2018-01-30T00:09:52.572Z,85.89
2018-01-30T00:12:20.831Z,85.73
2018-01-30T00:14:49.090Z,85.26
2018-01-30T00:17:17.413Z,85.32
2018-01-30T00:19:45.709Z,85.47
2018-01-30T00:22:14.725Z,85.50
2018-01-30T00:24:43.015Z,85.79
2018-01-30T00:27:12.025Z,86.00
2018-01-30T00:29:41.065Z,85.96
2018-01-30T00:32:09.804Z,85.88
2018-01-30T00:34:38.061Z,85.75
2018-01-30T00:37:06.319Z,85.51
2018-01-30T00:39:34.585Z,85.59
2018-01-30T00:42:03.592Z,85.82
2018-01-30T00:44:32.670Z,85.37
2018-01-30T00:47:01.708Z,85.45
2018-01-30T00:49:30.776Z,85.61
2018-01-30T00:51:59.059Z,86.00
2018-01-30T00:54:27.367Z,85.63
2018-01-30T00:56:55.611Z,85.94
2018-01-30T00:59:23.873Z,86.26
2018-01-30T01:01:52.897Z,86.38
2018-01-30T01:04:21.154Z,86.18
2018-01-30T01:06:49.401Z,86.21
2018-01-30T01:09:17.659Z,86.51
2018-01-30T01:11:45.961Z,86.63
2018-01-30T01:14:14.237Z,86.58
2018-01-30T01:16:42.520Z,86.51
2018-01-30T01:19:11.543Z,86.58
2018-01-30T01:21:39.787Z,86.87
2018-01-30T01:24:08.063Z,87.30
2018-01-30T01:26:36.312Z,87.45
2018-01-30T01:29:04.584Z,87.20
2018-01-30T01:31:32.866Z,87.26
2018-01-30T01:34:01.890Z,87.05
2018-01-30T01:36:30.193Z,87.34
2018-01-30T01:38:58.631Z,88.14
2018-01-30T01:41:27.712Z,87.43
2018-01-30T01:43:56.003Z,87.92
2018-01-30T01:46:24.252Z,87.90
2018-01-30T01:48:52.503Z,87.79
2018-01-30T01:51:20.777Z,88.36
2018-01-30T01:53:49.034Z,88.73
2018-01-30T01:56:17.329Z,88.42
2018-01-30T01:58:45.668Z,89.06
2018-01-30T02:01:14.726Z,89.42
2018-01-30T02:03:42.967Z,89.37
2018-01-30T02:06:11.231Z,89.98
2018-01-30T02:08:39.493Z,89.40
2018-01-30T02:11:07.763Z,89.32
2018-01-30T02:13:36.019Z,89.39
2018-01-30T02:16:04.289Z,89.51
2018-01-30T02:18:32.555Z,89.54
2018-01-30T02:21:00.845Z,89.14
2018-01-30T02:23:29.188Z,89.04
2018-01-30T02:25:58.586Z,88.85
2018-01-30T02:28:27.683Z,88.62
2018-01-30T02:30:56.116Z,88.75
2018-01-30T02:33:24.384Z,88.27
2018-01-30T02:35:52.657Z,88.47
2018-01-30T02:38:20.907Z,88.44
2018-01-30T02:40:49.161Z,88.19
2018-01-30T02:43:17.414Z,88.15
2018-01-30T02:45:45.702Z,88.12
2018-01-30T02:48:13.955Z,87.95
2018-01-30T02:50:42.235Z,87.64
2018-01-30T02:53:10.488Z,87.76
2018-01-30T02:55:38.751Z,87.73
2018-01-30T02:58:07.008Z,87.90
2018-01-30T03:00:35.272Z,87.74
2018-01-30T03:03:04.660Z,88.04
2018-01-30T03:05:32.931Z,88.25
2018-01-30T03:08:01.212Z,88.22
2018-01-30T03:10:29.508Z,88.41
2018-01-30T03:12:58.033Z,88.37
2018-01-30T03:15:27.139Z,88.34
2018-01-30T03:17:55.403Z,88.20
2018-01-30T03:20:23.691Z,88.67
2018-01-30T03:22:51.961Z,89.03
2018-01-30T03:25:20.204Z,88.61
2018-01-30T03:27:48.467Z,88.77
2018-01-30T03:30:16.725Z,87.97
2018-01-30T03:32:45.012Z,88.53
2018-01-30T03:35:13.385Z,87.82
2018-01-30T03:37:42.411Z,88.12
2018-01-30T03:40:10.658Z,87.77
2018-01-30T03:42:40.428Z,87.51
2018-01-30T03:45:08.688Z,87.02
2018-01-30T03:47:37.729Z,87.03
2018-01-30T03:50:06.008Z,87.16
2018-01-30T03:52:34.273Z,87.20
2018-01-30T03:55:03.285Z,86.92
2018-01-30T03:57:32.348Z,86.89
2018-01-30T04:00:00.623Z,87.03
2018-01-30T04:02:28.930Z,86.90
2018-01-30T04:04:57.228Z,86.76
2018-01-30T04:07:25.547Z,87.75
2018-01-30T04:09:53.811Z,88.38
2018-01-30T04:12:22.067Z,89.32
2018-01-30T04:14:50.323Z,89.15
2018-01-30T04:17:19.351Z,89.27
2018-01-30T04:19:47.600Z,90.08
2018-01-30T04:22:16.638Z,90.42
2018-01-30T04:24:44.930Z,90.18
2018-01-30T04:27:13.194Z,89.92
2018-01-30T04:29:42.202Z,89.89
2018-01-30T04:32:11.235Z,89.46
2018-01-30T04:34:39.494Z,89.59
2018-01-30T04:37:08.520Z,89.79
2018-01-30T04:39:36.769Z,90.34
2018-01-30T04:42:05.038Z,90.28
2018-01-30T04:44:33.295Z,90.54
2018-01-30T04:47:01.597Z,90.64
2018-01-30T04:49:29.877Z,90.60
2018-01-30T04:51:58.147Z,90.16
2018-01-30T04:54:26.448Z,90.54
2018-01-30T04:56:54.705Z,90.77
2018-01-30T04:59:23.755Z,90.74
2018-01-30T05:01:52.006Z,90.61
2018-01-30T05:04:21.040Z,90.69
2018-01-30T05:06:49.303Z,90.80
2018-01-30T05:09:18.336Z,90.39
2018-01-30T05:11:46.622Z,90.26
2018-01-30T05:14:14.902Z,88.80
2018-01-30T05:16:43.146Z,88.23
2018-01-30T05:19:11.438Z,88.20
2018-01-30T05:21:39.700Z,89.20
2018-01-30T05:24:07.964Z,89.81
2018-01-30T05:26:36.207Z,90.64
2018-01-30T05:29:04.468Z,91.74
2018-01-30T05:31:32.724Z,92.58
2018-01-30T05:34:01.017Z,91.90
2018-01-30T05:36:29.287Z,93.36
2018-01-30T05:38:58.348Z,94.83
2018-01-30T05:41:26.648Z,93.87
2018-01-30T05:43:54.920Z,94.11
2018-01-30T05:46:23.172Z,94.32
2018-01-30T05:48:51.430Z,94.14
2018-01-30T05:51:19.673Z,94.87
2018-01-30T05:53:47.943Z,94.98
2018-01-30T05:56:16.209Z,95.57
2018-01-30T05:58:46.028Z,96.21
2018-01-30T06:01:14.356Z,96.42
2018-01-30T06:03:42.644Z,96.91
2018-01-30T06:06:10.949Z,96.80
2018-01-30T06:08:39.964Z,97.68
2018-01-30T06:11:08.252Z,95.72
2018-01-30T06:13:36.517Z,96.39
2018-01-30T06:16:04.912Z,97.20
2018-01-30T06:18:33.173Z,97.82
2018-01-30T06:21:01.491Z,97.77
2018-01-30T06:23:29.784Z,98.35
2018-01-30T06:25:58.188Z,98.47
2018-01-30T06:28:26.551Z,98.48
2018-01-30T06:30:55.037Z,97.52
2018-01-30T06:33:24.055Z,96.97
2018-01-30T06:35:52.330Z,95.93
2018-01-30T06:38:21.894Z,95.69
2018-01-30T06:40:50.163Z,96.35
2018-01-30T06:43:18.407Z,95.97
2018-01-30T06:45:46.689Z,95.97
2018-01-30T06:48:14.979Z,95.95
2018-01-30T06:50:43.240Z,96.30
2018-01-30T06:53:11.490Z,96.33
2018-01-30T06:55:39.762Z,97.22
2018-01-30T06:58:08.799Z,97.51
2018-01-30T07:00:37.118Z,97.37
2018-01-30T07:03:05.399Z,97.49
2018-01-30T07:05:33.675Z,97.33
2018-01-30T07:08:01.958Z,97.94
2018-01-30T07:10:30.264Z,98.13
2018-01-30T07:12:58.553Z,97.97
2018-01-30T07:15:26.908Z,97.59
2018-01-30T07:17:55.181Z,98.13
2018-01-30T07:20:23.489Z,97.89
2018-01-30T07:22:51.745Z,97.91
2018-01-30T07:25:20.004Z,97.15
2018-01-30T07:27:48.278Z,94.73
2018-01-30T07:30:16.567Z,95.90
2018-01-30T07:32:44.851Z,95.09
2018-01-30T07:35:13.131Z,94.84
2018-01-30T07:37:41.384Z,95.87
2018-01-30T07:40:09.706Z,93.46
2018-01-30T07:42:38.214Z,94.20
2018-01-30T07:45:06.483Z,94.20
2018-01-30T07:47:35.534Z,95.63
2018-01-30T07:50:03.780Z,95.22
2018-01-30T07:52:32.833Z,94.73
2018-01-30T07:55:01.080Z,95.83
2018-01-30T07:57:29.361Z,97.25
2018-01-30T07:59:57.772Z,87.95
2018-01-30T08:02:26.107Z,85.25
2018-01-30T08:04:54.361Z,89.94
2018-01-30T08:07:22.655Z,90.91
2018-01-30T08:09:50.913Z,91.53
2018-01-30T08:12:19.968Z,90.11
2018-01-30T08:14:48.215Z,90.81
2018-01-30T08:17:16.510Z,91.63
2018-01-30T08:19:45.563Z,92.85
2018-01-30T08:22:13.848Z,92.68
2018-01-30T08:24:42.113Z,91.80
2018-01-30T08:27:16.028Z,90.59
2018-01-30T08:29:44.301Z,88.63
2018-01-30T08:32:13.352Z,90.38
2018-01-30T08:34:41.598Z,92.04
2018-01-30T08:37:09.850Z,92.63
2018-01-30T08:39:38.124Z,93.34
2018-01-30T08:42:06.393Z,91.99
2018-01-30T08:44:34.677Z,92.76
2018-01-30T08:47:02.929Z,92.83
2018-01-30T08:49:31.963Z,93.63
2018-01-30T08:52:00.300Z,93.65
2018-01-30T08:54:28.727Z,91.05
2018-01-30T08:56:57.509Z,93.11
2018-01-30T08:59:26.591Z,92.97
2018-01-30T09:01:54.853Z,91.64
2018-01-30T09:04:23.108Z,92.40
2018-01-30T09:06:51.392Z,91.03
2018-01-30T09:09:19.644Z,89.00
2018-01-30T09:11:47.927Z,90.16
2018-01-30T09:14:16.212Z,90.56
2018-01-30T09:16:44.471Z,89.54
2018-01-30T09:19:14.296Z,89.69
2018-01-30T09:21:42.544Z,90.26
2018-01-30T09:24:10.804Z,90.02
2018-01-30T09:26:39.058Z,89.43
2018-01-30T09:29:07.336Z,90.53
2018-01-30T09:31:36.937Z,91.46
2018-01-30T09:34:05.983Z,92.34
2018-01-30T09:36:34.236Z,92.60
2018-01-30T09:39:02.503Z,92.75
2018-01-30T09:41:30.785Z,92.83
2018-01-30T09:43:59.062Z,91.08
2018-01-30T09:46:27.389Z,90.26
2018-01-30T09:48:55.680Z,86.87
2018-01-30T09:51:24.718Z,87.81
2018-01-30T09:53:53.023Z,87.51
2018-01-30T09:56:21.282Z,86.50
2018-01-30T09:58:50.914Z,88.58
2018-01-30T10:01:19.172Z,88.85
2018-01-30T10:03:47.456Z,87.54
2018-01-30T10:06:15.751Z,88.04
2018-01-30T10:08:44.019Z,87.40
2018-01-30T10:11:12.272Z,88.65
2018-01-30T10:13:40.546Z,87.85
2018-01-30T10:16:09.930Z,88.63
2018-01-30T10:18:38.232Z,85.62
2018-01-30T10:21:07.253Z,87.44
2018-01-30T10:23:36.285Z,88.73
2018-01-30T10:26:04.581Z,87.83
2018-01-30T10:28:32.844Z,88.90
2018-01-30T10:31:01.143Z,88.20
2018-01-30T10:33:29.484Z,89.37
2018-01-30T10:35:58.003Z,88.65
2018-01-30T10:38:27.113Z,88.25
2018-01-30T10:40:55.396Z,84.88
2018-01-30T10:43:24.437Z,84.99
2018-01-30T10:45:52.691Z,87.22
2018-01-30T10:48:21.715Z,87.18
2018-01-30T10:50:49.980Z,86.01
2018-01-30T10:53:18.295Z,85.76
2018-01-30T10:55:46.661Z,87.83
2018-01-30T10:58:14.932Z,84.15
2018-01-30T11:00:43.193Z,86.46
2018-01-30T11:03:11.443Z,87.31
2018-01-30T11:05:40.471Z,85.78
2018-01-30T11:08:09.542Z,84.51
2018-01-30T11:10:37.808Z,86.61
2018-01-30T11:13:06.061Z,85.48
2018-01-30T11:15:35.082Z,87.08
2018-01-30T11:18:03.329Z,87.31
2018-01-30T11:20:32.359Z,83.87
2018-01-30T11:23:00.619Z,83.27
2018-01-30T11:25:29.719Z,84.09
2018-01-30T11:27:58.019Z,83.73
2018-01-30T11:30:27.072Z,84.18
2018-01-30T11:32:55.369Z,85.31
2018-01-30T11:35:23.635Z,85.56
2018-01-30T11:37:51.909Z,82.26
2018-01-30T11:40:20.178Z,83.06
2018-01-30T11:42:49.200Z,85.93
2018-01-30T11:45:18.235Z,84.12
2018-01-30T11:47:46.499Z,85.54
2018-01-30T11:50:15.545Z,85.48
2018-01-30T11:52:43.826Z,86.12
2018-01-30T11:55:12.175Z,85.23
2018-01-30T11:57:41.187Z,85.44
2018-01-30T12:00:09.495Z,84.50
2018-01-30T12:02:37.755Z,85.30
2018-01-30T12:05:06.027Z,84.11
2018-01-30T12:07:34.273Z,84.70
2018-01-30T12:10:02.542Z,85.00
2018-01-30T12:12:30.811Z,84.71
2018-01-30T12:14:59.848Z,84.16
2018-01-30T12:17:28.159Z,85.79
2018-01-30T12:19:56.428Z,85.17
2018-01-30T12:22:24.705Z,82.98
2018-01-30T12:24:52.948Z,83.37
2018-01-30T12:27:21.253Z,84.72
2018-01-30T12:29:49.502Z,85.51
2018-01-30T12:32:17.772Z,85.70
2018-01-30T12:34:46.028Z,85.15
2018-01-30T12:37:15.091Z,84.26
2018-01-30T12:39:43.361Z,84.95
2018-01-30T12:42:11.638Z,84.32
2018-01-30T12:44:39.883Z,83.89
2018-01-30T12:47:08.165Z,84.10
2018-01-30T12:49:37.092Z,83.99
2018-01-30T12:52:05.367Z,84.01
2018-01-30T12:54:33.623Z,82.93
2018-01-30T12:57:01.911Z,83.07
2018-01-30T12:59:30.195Z,82.80
2018-01-30T13:01:58.511Z,83.82
2018-01-30T13:04:26.840Z,84.57
2018-01-30T13:06:55.903Z,85.79
2018-01-30T13:09:24.157Z,85.61
2018-01-30T13:11:52.436Z,85.55
2018-01-30T13:14:20.698Z,84.87
2018-01-30T13:16:48.967Z,86.14
2018-01-30T13:19:17.248Z,84.36
2018-01-30T13:21:45.576Z,83.74
2018-01-30T13:24:13.826Z,82.36
2018-01-30T13:26:42.118Z,84.14
2018-01-30T13:29:10.363Z,81.41
2018-01-30T13:31:38.622Z,81.92
2018-01-30T13:34:06.866Z,82.72
2018-01-30T13:36:35.124Z,83.28
2018-01-30T13:39:04.182Z,84.04
2018-01-30T13:41:32.446Z,84.22
2018-01-30T13:46:37.792Z,87.05
2018-01-30T13:49:06.825Z,87.19
2018-01-30T13:51:35.079Z,87.24
2018-01-30T13:54:03.362Z,88.00
2018-01-30T13:56:31.629Z,89.53
2018-01-30T13:58:59.911Z,88.86
2018-01-30T14:01:28.197Z,89.14
2018-01-30T14:03:56.478Z,88.98
2018-01-30T14:06:24.736Z,90.12
2018-01-30T14:08:53.018Z,91.10
2018-01-30T14:11:22.225Z,90.11
2018-01-30T14:13:51.263Z,91.14
2018-01-30T14:16:19.532Z,91.30
2018-01-30T14:18:47.801Z,91.61
2018-01-30T14:21:16.827Z,92.40
2018-01-30T14:23:45.860Z,92.19
2018-01-30T14:26:14.139Z,93.32
2018-01-30T14:28:42.447Z,92.88
2018-01-30T14:31:10.716Z,93.20
2018-01-30T14:33:38.999Z,92.86
2018-01-30T14:36:08.198Z,93.25
2018-01-30T14:38:37.228Z,92.81
2018-01-30T14:41:05.488Z,92.56
2018-01-30T14:43:34.531Z,92.67
2018-01-30T14:46:02.800Z,92.83
2018-01-30T14:48:31.832Z,92.75
2018-01-30T14:51:00.108Z,93.53
2018-01-30T14:53:28.444Z,93.46
2018-01-30T14:55:57.506Z,91.30
2018-01-30T14:58:26.075Z,92.28
2018-01-30T15:00:54.415Z,92.36
2018-01-30T15:03:22.664Z,92.96
2018-01-30T15:05:50.924Z,92.43
2018-01-30T15:08:19.225Z,92.24
2018-01-30T15:10:48.263Z,91.79
2018-01-30T15:13:16.523Z,92.61
2018-01-30T15:15:45.591Z,92.31
2018-01-30T15:18:13.868Z,91.69
2018-01-30T15:20:42.188Z,91.95
2018-01-30T15:23:10.444Z,92.15
2018-01-30T15:25:38.733Z,91.42
2018-01-30T15:28:06.981Z,91.57
2018-01-30T15:30:36.029Z,90.34
2018-01-30T15:33:04.274Z,91.78
2018-01-30T15:35:33.326Z,92.08
2018-01-30T15:38:01.970Z,90.16
2018-01-30T15:40:31.031Z,91.25
2018-01-30T15:42:59.321Z,91.56
2018-01-30T15:45:27.628Z,91.47
2018-01-30T15:47:55.890Z,91.93
2018-01-30T15:50:24.159Z,91.10
2018-01-30T15:52:52.456Z,91.77
2018-01-30T15:55:20.718Z,92.33
2018-01-30T15:57:50.520Z,93.04
2018-01-30T16:00:18.791Z,93.36
2018-01-30T16:02:47.043Z,93.40
2018-01-30T16:05:15.333Z,94.52
2018-01-30T16:07:43.606Z,96.05
2018-01-30T16:10:12.689Z,96.42
2018-01-30T16:12:40.931Z,96.18
2018-01-30T16:15:09.253Z,96.21
2018-01-30T16:17:37.575Z,96.15
2018-01-30T16:20:06.619Z,96.32
2018-01-30T16:22:34.884Z,96.02
2018-01-30T16:25:03.928Z,96.15
2018-01-30T16:27:32.195Z,95.98
2018-01-30T16:30:00.490Z,96.18
2018-01-30T16:32:28.869Z,96.33
2018-01-30T16:34:57.154Z,96.09
2018-01-30T16:37:26.240Z,95.89
2018-01-30T16:39:55.274Z,96.07
2018-01-30T16:42:23.559Z,95.92
2018-01-30T16:44:51.831Z,96.09
2018-01-30T16:47:20.877Z,95.88
2018-01-30T16:49:49.143Z,95.87
2018-01-30T16:52:18.192Z,95.23
2018-01-30T16:54:46.438Z,95.56
2018-01-30T16:57:14.748Z,95.70
2018-01-30T16:59:43.151Z,96.37
2018-01-30T17:02:11.445Z,96.39
2018-01-30T17:04:39.704Z,96.14
2018-01-30T17:07:08.919Z,96.40
2018-01-30T17:09:37.185Z,96.62
2018-01-30T17:12:06.215Z,96.46
2018-01-30T17:14:35.223Z,96.48
2018-01-30T17:17:03.488Z,97.01
2018-01-30T17:19:32.521Z,97.31
2018-01-30T17:22:00.851Z,97.43
2018-01-30T17:24:29.173Z,97.51
2018-01-30T17:26:58.247Z,98.01
2018-01-30T17:29:26.561Z,98.25
2018-01-30T17:31:54.827Z,98.16
2018-01-30T17:34:23.086Z,98.43
2018-01-30T17:36:51.392Z,98.39
2018-01-30T17:39:19.685Z,98.34
2018-01-30T17:41:47.947Z,98.18
2018-01-30T17:44:16.979Z,98.35
2018-01-30T17:46:45.264Z,98.02
2018-01-30T17:49:14.282Z,98.07
2018-01-30T17:51:42.616Z,97.83
2018-01-30T17:54:12.374Z,97.81
2018-01-30T17:56:40.647Z,97.52
2018-01-30T17:59:09.668Z,97.61
2018-01-30T18:01:37.964Z,97.58
2018-01-30T18:04:06.268Z,97.68
2018-01-30T18:06:35.463Z,97.57
2018-01-30T18:09:03.755Z,97.48
2018-01-30T18:11:32.028Z,97.37
2018-01-30T18:14:01.184Z,97.57
2018-01-30T18:16:29.733Z,98.01
2018-01-30T18:18:58.255Z,97.95
2018-01-30T18:21:26.622Z,98.30
2018-01-30T18:23:54.925Z,97.99
2018-01-30T18:26:23.191Z,97.77
2018-01-30T18:28:52.252Z,100.00
2018-01-30T18:31:20.498Z,95.18
2018-01-30T18:33:48.848Z,96.61
2018-01-30T18:36:18.614Z,96.37
2018-01-30T18:38:46.944Z,96.58
2018-01-30T18:41:15.281Z,96.37
2018-01-30T18:43:44.320Z,96.53
2018-01-30T18:46:12.579Z,96.63
2018-01-30T18:48:42.357Z,96.62
2018-01-30T18:51:10.611Z,96.40
2018-01-30T18:53:38.895Z,96.84
2018-01-30T18:56:07.155Z,97.01
2018-01-30T18:58:37.021Z,97.25
2018-01-30T19:01:05.290Z,97.00
2018-01-30T19:03:34.324Z,96.42
2018-01-30T19:06:02.633Z,96.93
2018-01-30T19:08:31.759Z,96.57
2018-01-30T19:11:00.049Z,96.77
2018-01-30T19:13:28.634Z,96.74
2018-01-30T19:15:57.002Z,97.04
2018-01-30T19:18:25.334Z,96.58
2018-01-30T19:20:53.655Z,96.70
2018-01-30T19:23:21.971Z,96.45
2018-01-30T19:25:50.260Z,94.73
2018-01-30T19:28:18.567Z,93.72
2018-01-30T19:30:46.869Z,92.53
2018-01-30T19:33:15.145Z,92.54
2018-01-30T19:35:43.446Z,93.57
2018-01-30T19:38:11.686Z,92.75
2018-01-30T19:40:40.058Z,94.08
2018-01-30T19:43:08.339Z,94.05
2018-01-30T19:45:36.643Z,94.54
2018-01-30T19:48:05.741Z,94.96
2018-01-30T19:50:34.098Z,94.62
2018-01-30T19:53:02.368Z,93.06
2018-01-30T19:55:30.744Z,92.44
2018-01-30T19:57:59.159Z,93.03
2018-01-30T20:00:28.288Z,91.72
2018-01-30T20:02:56.580Z,92.44
2018-01-30T20:05:24.870Z,90.95
2018-01-30T20:07:53.123Z,91.01
2018-01-30T20:10:21.444Z,90.16
2018-01-30T20:12:49.732Z,87.48
2018-01-30T20:15:18.054Z,86.61
2018-01-30T20:17:47.091Z,84.37
2018-01-30T20:20:15.480Z,86.26
2018-01-30T20:22:43.753Z,84.00
2018-01-30T20:25:12.818Z,84.12
2018-01-30T20:27:41.122Z,84.21
2018-01-30T20:30:09.466Z,83.62
2018-01-30T20:32:37.731Z,82.87
2018-01-30T20:35:05.980Z,83.16
2018-01-30T20:37:34.303Z,83.15
2018-01-30T20:40:03.344Z,81.85
2018-01-30T20:42:31.611Z,79.97
2018-01-30T20:44:59.974Z,81.43
2018-01-30T20:47:29.163Z,79.25
2018-01-30T20:49:57.666Z,80.73
2018-01-30T20:52:26.951Z,80.15
2018-01-30T20:54:56.341Z,81.62
2018-01-30T20:57:24.650Z,81.22
2018-01-30T20:59:52.933Z,81.53
2018-01-30T21:02:21.180Z,81.15
2018-01-30T21:04:50.280Z,80.45
2018-01-30T21:07:18.592Z,81.07
2018-01-30T21:09:47.696Z,80.68
2018-01-30T21:12:15.933Z,81.25
2018-01-30T21:14:44.302Z,82.14
2018-01-30T21:17:12.607Z,79.33
2018-01-30T21:19:40.863Z,79.71
2018-01-30T21:22:09.899Z,79.83
2018-01-30T21:24:38.160Z,77.80
2018-01-30T21:27:07.203Z,78.87
2018-01-30T21:29:36.418Z,77.99
2018-01-30T21:32:04.740Z,77.88
2018-01-30T21:34:33.058Z,77.97
2018-01-30T21:37:01.438Z,79.08
2018-01-30T21:39:30.567Z,79.34
2018-01-30T21:41:58.869Z,79.73
2018-01-30T21:44:27.213Z,79.97
2018-01-30T21:46:56.501Z,80.17
2018-01-30T21:49:25.565Z,80.24
2018-01-30T21:51:53.927Z,80.29
2018-01-30T21:54:22.167Z,80.35
2018-01-30T21:56:50.432Z,79.78
2018-01-30T21:59:18.679Z,80.42
2018-01-30T22:01:46.947Z,81.21
2018-01-30T22:04:15.318Z,79.89
2018-01-30T22:06:43.868Z,79.90
2018-01-30T22:09:12.165Z,79.70
2018-01-30T22:11:41.601Z,78.79
2018-01-30T22:14:09.866Z,77.52
2018-01-30T22:16:38.165Z,77.79
2018-01-30T22:19:07.177Z,78.06
2018-01-30T22:21:36.210Z,76.96
2018-01-30T22:24:04.531Z,77.73
2018-01-30T22:26:32.803Z,78.00
2018-01-30T22:29:01.155Z,76.65
2018-01-30T22:31:30.212Z,75.59
2018-01-30T22:33:58.624Z,74.72
2018-01-30T22:36:28.050Z,74.46
2018-01-30T22:38:57.257Z,74.81
2018-01-30T22:41:26.434Z,74.87
2018-01-30T22:43:54.728Z,74.38
2018-01-30T22:46:24.998Z,74.75
